Skip Navigation Links
NOAA logo - Click to go to the NOAA homepage
NOAA's National Weather Service
Alaska Aviation Weather Unit
  NWS logo - Click to go to the NWS homepage
Left Navbar Graphic     21 AKDT = 05 GMT

   
NOAA is celebrating 200 years of science, service, and stewardship. Visit the NOAA 200th celebration Web site to learn more.
USA.gov is the U.S. Government's official Web portal to all Federal, state and local government Web resources and services.
Facebook
NWS on Facebook

AAWU Home :: Display TAF Add Bookmark
METAR PANN 262353Z AUTO 34006KT 10SM CLR 07/M06 A2956 RMK SLP017
     T00721056 10072 20022 55001 TSNO VIA AUTODIAL=

PANN 270053Z AUTO 32010KT 10SM OVC100 07/M06 A2955 RMK SLP014
     T00671061 TSNO VIA AUTODIAL=

METAR PANN 270153Z AUTO 33011KT 10SM OVC090 06/M06 A2955 RMK SLP014
     T00561061 TSNO VIA AUTODIAL=

METAR PANN 270253Z AUTO 34005KT 10SM OVC080 05/M06 A2956 RMK SLP018
     T00501061 53000 TSNO VIA AUTODIAL=

METAR PANN 270353Z AUTO 31005KT 10SM OVC080 04/M06 A2956 RMK SLP019
     T00441061 TSNO VIA AUTODIAL=


NOAA's National Weather Service
Alaska Aviation Weather Unit
6930 Sand Lake Road
Anchorage, AK 99502-1845
Disclaimer
Credits
Glossary
Privacy Policy
About Us
Career Opportunities
Contact AAWU Internet Services Site last modified: April, 17th 2012